Time;durP1;ratioP1;P1;durP2;ratioP2;P2;SDS_P1;SDS_P2;PMS_P1;PMS_P2;Temp;Humidity;BMP_temperature;BMP_pressure;BME280_temperature;BME280_humidity;BME280_pressure;Samples;Min_cycle;Max_cycle;Signal;HPM_P1;HPM_P2
2022/06/02 00:00:51;;;;;;;;;;;;;;;24.98;26.43;100383.72;5095911;28;19923;-67
2022/06/02 00:03:19;;;;;;;;;;;;;;;24.99;26.08;100377.16;5077831;28;19916;-67
2022/06/02 00:06:05;;;;;;;;;;;;;;;24.98;26.24;100381.00;5095926;28;19939;-69
2022/06/02 00:08:30;;;;;;;;;;;;;;;24.98;26.14;100364.59;5077661;28;19917;-67
2022/06/02 00:10:55;;;;;;;;;;;;;;;24.98;26.37;100359.13;5095679;28;19916;-67
2022/06/02 00:13:25;;;;;;;;;;;;;;;24.97;26.27;100346.53;5095478;28;20277;-67
2022/06/02 00:15:52;;;;;;;;;;;;;;;24.97;26.41;100347.34;5095562;28;19916;-67
2022/06/02 00:18:21;;;;;;;;;;;;;;;24.97;26.23;100336.41;5095527;28;19956;-67
2022/06/02 00:20:46;;;;;;;;;;;;;;;24.97;26.27;100332.88;5095504;28;19916;-67
2022/06/02 00:23:34;;;;;;;;;;;;;;;24.96;26.41;100328.50;5095407;28;19938;-67
2022/06/02 00:26:06;;;;;;;;;;;;;;;24.97;26.43;100328.22;5086703;28;19931;-67
2022/06/02 00:28:42;;;;;;;;;;;;;;;24.96;26.29;100325.75;5095360;28;19948;-67
2022/06/02 00:31:12;;;;;;;;;;;;;;;24.95;26.42;100315.94;5077080;28;19920;-67
2022/06/02 00:34:15;;;;;;;;;;;;;;;24.93;26.23;100322.50;5076819;28;20007;-67
2022/06/02 00:37:03;;;;;;;;;;;;;;;24.94;26.21;100312.41;5032577;28;19917;-67
2022/06/02 00:39:30;;;;;;;;;;;;;;;24.92;26.32;100304.50;5024596;28;19917;-67
2022/06/02 00:42:13;;;;;;;;;;;;;;;24.95;26.47;100305.03;5032581;28;20315;-67
2022/06/02 00:44:44;;;;;;;;;;;;;;;24.93;26.37;100299.84;5032433;28;19979;-67
2022/06/02 00:47:28;;;;;;;;;;;;;;;24.92;26.33;100290.81;5032383;28;19924;-67
2022/06/02 00:50:04;;;;;;;;;;;;;;;24.91;26.45;100288.38;5032495;28;20328;-67
2022/06/02 00:52:47;;;;;;;;;;;;;;;24.91;26.56;100272.78;5032325;28;19924;-67
2022/06/02 00:58:16;;;;;;;;;;;;;;;24.90;26.35;100265.66;5032333;28;20394;-67
2022/06/02 01:00:43;;;;;;;;;;;;;;;24.89;26.31;100261.31;5032198;28;19917;-67
2022/06/02 01:03:19;;;;;;;;;;;;;;;24.90;26.28;100254.75;5015740;28;19917;-68
2022/06/02 01:05:53;;;;;;;;;;;;;;;24.88;26.53;100240.53;5032040;28;19940;-67
2022/06/02 01:08:26;;;;;;;;;;;;;;;24.87;26.38;100233.47;5085423;28;19939;-68
2022/06/02 01:10:58;;;;;;;;;;;;;;;24.87;26.52;100233.47;5076401;28;19923;-68
2022/06/02 01:13:23;;;;;;;;;;;;;;;24.87;26.49;100216.22;5075694;28;19951;-67
2022/06/02 01:15:51;;;;;;;;;;;;;;;24.88;26.20;100213.22;5094443;28;19961;-67
2022/06/02 01:18:35;;;;;;;;;;;;;;;24.88;26.34;100207.75;5094713;28;19995;-68
2022/06/02 01:21:19;;;;;;;;;;;;;;;24.86;26.30;100199.03;5094019;28;20383;-67
2022/06/02 01:23:57;;;;;;;;;;;;;;;24.87;26.31;100202.56;5093949;28;20290;-69
2022/06/02 01:26:22;;;;;;;;;;;;;;;24.85;26.41;100191.09;5074045;28;19921;-68
2022/06/02 01:28:56;;;;;;;;;;;;;;;24.86;26.20;100192.75;5074021;28;19939;-67
2022/06/02 01:31:27;;;;;;;;;;;;;;;24.85;26.32;100177.44;5073849;28;19931;-67
2022/06/02 01:33:56;;;;;;;;;;;;;;;24.85;26.40;100170.09;5056074;28;19917;-68
2022/06/02 01:36:39;;;;;;;;;;;;;;;24.85;26.23;100167.34;5055988;28;19917;-68
2022/06/02 01:39:13;;;;;;;;;;;;;;;24.85;26.20;100152.84;5055606;28;19924;-68
2022/06/02 01:41:52;;;;;;;;;;;;;;;24.84;26.28;100157.50;5073787;28;19916;-68
2022/06/02 01:44:38;;;;;;;;;;;;;;;24.84;26.25;100146.56;5073410;28;19962;-68
2022/06/02 01:47:05;;;;;;;;;;;;;;;24.85;26.04;100148.22;5073731;28;19928;-69
2022/06/02 01:49:31;;;;;;;;;;;;;;;24.83;26.19;100138.66;5055529;28;19917;-68
2022/06/02 01:52:00;;;;;;;;;;;;;;;24.84;26.38;100145.78;5073640;28;19923;-68
2022/06/02 01:54:43;;;;;;;;;;;;;;;24.84;25.99;100137.56;5055836;28;19985;-68
2022/06/02 01:57:09;;;;;;;;;;;;;;;24.82;26.18;100137.84;5072713;28;19970;-68
2022/06/02 01:59:34;;;;;;;;;;;;;;;24.84;26.27;100135.66;5073446;28;19917;-68
2022/06/02 02:02:02;;;;;;;;;;;;;;;24.85;25.92;100136.44;5073357;28;20002;-68
2022/06/02 02:04:36;;;;;;;;;;;;;;;24.83;26.08;100139.47;5073483;28;19917;-68
2022/06/02 02:07:20;;;;;;;;;;;;;;;24.84;26.06;100134.84;5073346;28;19924;-68
2022/06/02 02:10:00;;;;;;;;;;;;;;;24.82;26.24;100132.38;5073664;28;19978;-68
2022/06/02 02:12:31;;;;;;;;;;;;;;;24.81;26.19;100128.00;5073650;28;19917;-67
2022/06/02 02:15:15;;;;;;;;;;;;;;;24.81;26.07;100119.81;5073658;28;19916;-67
2022/06/02 02:17:59;;;;;;;;;;;;;;;24.81;26.19;100124.47;5073602;28;19994;-67
2022/06/02 02:20:43;;;;;;;;;;;;;;;24.80;26.10;100125.56;5073602;28;19924;-67
2022/06/02 02:23:17;;;;;;;;;;;;;;;24.79;26.32;100132.97;5073303;28;19970;-67
2022/06/02 02:25:49;;;;;;;;;;;;;;;24.80;26.23;100151.00;5088917;28;19947;-67
2022/06/02 02:28:22;;;;;;;;;;;;;;;24.80;26.35;100153.72;5075771;28;19916;-67
2022/06/02 02:30:50;;;;;;;;;;;;;;;24.79;26.07;100146.63;5094305;28;19960;-67
2022/06/02 02:33:19;;;;;;;;;;;;;;;24.80;26.28;100145.53;5075849;28;20003;-67
2022/06/02 02:35:54;;;;;;;;;;;;;;;24.81;26.27;100138.16;5094156;28;19920;-67
2022/06/02 02:38:23;;;;;;;;;;;;;;;24.80;26.49;100134.59;5076062;28;19916;-68
2022/06/02 02:40:51;;;;;;;;;;;;;;;24.80;26.45;100139.22;5093877;28;19916;-67
2022/06/02 02:43:21;;;;;;;;;;;;;;;24.80;26.71;100131.88;5076102;28;19950;-67
2022/06/02 02:45:55;;;;;;;;;;;;;;;24.79;26.90;100119.28;5094026;28;19916;-67
2022/06/02 02:48:39;;;;;;;;;;;;;;;24.80;27.09;100110.00;5093438;28;19916;-68
2022/06/02 02:51:07;;;;;;;;;;;;;;;24.79;27.14;100094.69;5094032;28;20274;-68
2022/06/02 02:53:44;;;;;;;;;;;;;;;24.78;27.20;100087.59;5093534;28;19919;-68
2022/06/02 02:56:29;;;;;;;;;;;;;;;24.79;27.28;100078.31;5093791;28;19916;-68
2022/06/02 02:58:58;;;;;;;;;;;;;;;24.78;27.47;100076.66;5093976;28;20389;-67
2022/06/02 03:01:42;;;;;;;;;;;;;;;24.79;27.38;100067.38;5075322;28;19920;-68
2022/06/02 03:04:15;;;;;;;;;;;;;;;24.81;27.56;100072.56;5093269;28;19916;-68
2022/06/02 03:06:42;;;;;;;;;;;;;;;24.82;27.65;100063.22;5093252;28;19923;-68
2022/06/02 03:09:26;;;;;;;;;;;;;;;24.84;27.63;100064.59;5095154;28;19977;-67
2022/06/02 03:11:54;;;;;;;;;;;;;;;24.88;27.45;100054.69;5096744;28;20278;-68
2022/06/02 03:14:41;;;;;;;;;;;;;;;24.93;27.68;100051.91;5079458;28;19963;-67
2022/06/02 03:17:07;;;;;;;;;;;;;;;25.01;27.61;100052.34;5076085;28;19916;-67
2022/06/02 03:19:47;;;;;;;;;;;;;;;25.04;27.57;100052.59;5076385;28;19974;-67
2022/06/02 03:22:16;;;;;;;;;;;;;;;25.07;27.60;100051.19;5076067;28;20355;-67
2022/06/02 03:24:41;;;;;;;;;;;;;;;25.10;27.63;100045.16;5075944;28;20363;-67
2022/06/02 03:27:13;;;;;;;;;;;;;;;25.12;27.71;100048.41;5075809;28;20015;-67
2022/06/02 03:29:41;;;;;;;;;;;;;;;25.18;27.61;100044.50;5076080;28;20007;-67
2022/06/02 03:32:24;;;;;;;;;;;;;;;25.22;27.46;100037.31;5076021;28;19917;-67
2022/06/02 03:34:56;;;;;;;;;;;;;;;25.26;27.62;100032.91;5075802;28;20379;-67
2022/06/02 03:37:40;;;;;;;;;;;;;;;25.28;27.49;100033.44;5076095;28;19970;-68
2022/06/02 03:40:22;;;;;;;;;;;;;;;25.32;27.59;100027.38;5075761;28;19960;-69
2022/06/02 03:43:04;;;;;;;;;;;;;;;25.36;27.47;100025.69;5075901;28;19916;-68
2022/06/02 03:45:35;;;;;;;;;;;;;;;25.36;27.80;100012.00;5057920;28;19923;-67
2022/06/02 03:48:00;;;;;;;;;;;;;;;25.40;27.82;99999.38;5075573;28;20366;-67
2022/06/02 03:50:32;;;;;;;;;;;;;;;25.45;27.66;99999.28;5075496;28;19924;-67
2022/06/02 03:53:04;;;;;;;;;;;;;;;25.46;27.77;99993.53;5057543;28;20429;-67
2022/06/02 03:55:38;;;;;;;;;;;;;;;25.48;27.83;99991.28;5075675;28;19916;-67
2022/06/02 03:58:04;;;;;;;;;;;;;;;25.51;27.98;99968.03;5075597;28;19927;-67
2022/06/02 04:00:31;;;;;;;;;;;;;;;25.55;27.93;99960.03;5076481;28;19917;-67
2022/06/02 04:03:00;;;;;;;;;;;;;;;25.56;27.98;99937.00;5057861;28;19966;-67
2022/06/02 04:05:32;;;;;;;;;;;;;;;25.58;28.20;99927.41;5075192;28;19920;-68
2022/06/02 04:08:07;;;;;;;;;;;;;;;25.62;28.21;99912.00;5057629;28;19916;-68
2022/06/02 04:10:37;;;;;;;;;;;;;;;25.65;27.95;99903.19;5075139;28;19970;-67
2022/06/02 04:13:39;;;;;;;;;;;;;;;25.67;28.14;99911.13;5075101;28;19917;-67
2022/06/02 04:16:23;;;;;;;;;;;;;;;25.67;28.68;99913.84;5075156;28;20362;-69
2022/06/02 04:18:54;;;;;;;;;;;;;;;25.71;28.68;99908.59;5075197;28;19989;-68
2022/06/02 04:21:22;;;;;;;;;;;;;;;25.71;28.80;99914.84;5074463;28;19928;-67
2022/06/02 04:23:49;;;;;;;;;;;;;;;25.74;28.91;99918.94;5075073;28;19938;-68
2022/06/02 04:26:33;;;;;;;;;;;;;;;25.78;28.26;99911.75;5076862;28;20366;-67
2022/06/02 04:29:07;;;;;;;;;;;;;;;25.77;28.70;99904.66;5095247;28;19945;-67
2022/06/02 04:31:42;;;;;;;;;;;;;;;25.76;28.87;99883.88;5094921;28;20263;-68
2022/06/02 04:34:19;;;;;;;;;;;;;;;25.76;29.33;99870.19;5094695;28;19916;-68
2022/06/02 04:36:52;;;;;;;;;;;;;;;25.77;28.90;99850.72;5095019;28;20309;-69
2022/06/02 04:39:44;;;;;;;;;;;;;;;25.82;28.76;99847.09;5094939;28;19920;-68
2022/06/02 04:42:14;;;;;;;;;;;;;;;25.85;28.64;99851.94;5012656;28;19918;-68
2022/06/02 04:44:43;;;;;;;;;;;;;;;25.84;28.84;99839.38;4996306;28;20040;-68
2022/06/02 04:47:10;;;;;;;;;;;;;;;25.86;29.14;99848.09;5012814;28;19924;-68
2022/06/02 04:49:57;;;;;;;;;;;;;;;25.86;28.87;99834.41;5012523;28;19930;-67
2022/06/02 04:52:28;;;;;;;;;;;;;;;25.87;28.60;99825.06;5013077;28;19976;-67
2022/06/02 04:55:09;;;;;;;;;;;;;;;25.93;28.76;99823.88;4996001;28;19921;-68
2022/06/02 04:57:34;;;;;;;;;;;;;;;26.04;29.28;99822.59;5012395;28;19957;-69
2022/06/02 05:00:16;;;;;;;;;;;;;;;26.11;29.46;99804.91;5012536;28;20018;-68
2022/06/02 05:02:43;;;;;;;;;;;;;;;26.28;29.48;99799.63;4996110;28;19987;-68
2022/06/02 05:05:08;;;;;;;;;;;;;;;26.35;29.30;99802.75;5012504;28;19922;-69
2022/06/02 05:07:52;;;;;;;;;;;;;;;26.39;29.54;99801.03;5018534;28;19956;-67
2022/06/02 05:10:20;;;;;;;;;;;;;;;26.54;29.26;99801.78;5012065;28;19924;-69
2022/06/02 05:12:58;;;;;;;;;;;;;;;26.59;29.47;99798.94;5013804;28;20495;-68
2022/06/02 05:15:46;;;;;;;;;;;;;;;26.73;29.11;99787.97;5014990;28;19925;-68
2022/06/02 05:18:26;;;;;;;;;;;;;;;26.72;29.44;99780.88;5026462;28;20026;-68
2022/06/02 05:20:52;;;;;;;;;;;;;;;26.83;29.13;99775.94;5093752;28;20358;-67
2022/06/02 05:23:39;;;;;;;;;;;;;;;26.98;29.08;99772.84;5093551;28;20049;-67
2022/06/02 05:26:14;;;;;;;;;;;;;;;27.08;28.80;99764.34;5058732;28;19931;-68
2022/06/02 05:28:58;;;;;;;;;;;;;;;27.19;28.86;99766.84;5093556;28;19920;-67
2022/06/02 05:31:42;;;;;;;;;;;;;;;27.23;28.67;99765.06;5093126;28;19935;-67
2022/06/02 05:34:10;;;;;;;;;;;;;;;27.37;28.56;99751.28;5093216;28;20345;-68
2022/06/02 05:36:46;;;;;;;;;;;;;;;27.37;28.54;99757.56;5093476;28;19970;-69
2022/06/02 05:39:26;;;;;;;;;;;;;;;27.37;28.67;99746.59;5093460;28;20319;-68
2022/06/02 05:42:03;;;;;;;;;;;;;;;27.40;28.54;99743.22;5093441;28;20384;-68
2022/06/02 05:44:32;;;;;;;;;;;;;;;27.40;28.93;99743.22;5075368;28;19999;-68
2022/06/02 05:46:57;;;;;;;;;;;;;;;27.46;28.61;99744.72;5075993;28;19916;-68
2022/06/02 05:49:27;;;;;;;;;;;;;;;27.57;28.27;99741.69;5093672;28;19927;-68
2022/06/02 05:52:11;;;;;;;;;;;;;;;27.57;28.40;99736.22;5093781;28;19970;-67
2022/06/02 05:54:42;;;;;;;;;;;;;;;27.65;28.52;99738.19;5093539;28;19974;-67
2022/06/02 05:57:29;;;;;;;;;;;;;;;27.69;28.40;99731.72;5093443;28;20023;-67
2022/06/02 05:59:58;;;;;;;;;;;;;;;27.71;28.48;99723.16;5075435;28;19942;-68
2022/06/02 06:02:29;;;;;;;;;;;;;;;27.76;28.34;99724.97;5093314;28;19916;-67
2022/06/02 06:05:06;;;;;;;;;;;;;;;27.79;28.32;99716.09;5093508;28;19943;-67
2022/06/02 06:07:36;;;;;;;;;;;;;;;27.88;28.37;99719.66;5093248;28;20022;-67
2022/06/02 06:10:04;;;;;;;;;;;;;;;27.93;28.17;99716.00;5075098;28;19952;-67
2022/06/02 06:12:39;;;;;;;;;;;;;;;27.95;28.25;99713.72;5075100;28;20005;-67
2022/06/02 06:15:10;;;;;;;;;;;;;;;27.99;28.21;99706.47;5072413;28;19916;-67
2022/06/02 06:18:02;;;;;;;;;;;;;;;28.07;28.00;99711.16;5072436;28;19923;-67
2022/06/02 06:20:27;;;;;;;;;;;;;;;28.09;28.07;99701.44;5030626;28;19917;-67
2022/06/02 06:23:03;;;;;;;;;;;;;;;28.09;28.11;99700.66;5030536;28;20474;-68
2022/06/02 06:25:34;;;;;;;;;;;;;;;28.11;28.25;99692.91;5030179;28;20406;-67
2022/06/02 06:28:05;;;;;;;;;;;;;;;28.08;28.55;99693.56;5030541;28;19921;-67
2022/06/02 06:30:30;;;;;;;;;;;;;;;28.22;27.96;99696.16;5030446;28;19961;-67
2022/06/02 06:32:55;;;;;;;;;;;;;;;28.24;28.01;99697.44;5031234;28;20051;-68
2022/06/02 06:35:20;;;;;;;;;;;;;;;28.27;27.94;99683.06;5030388;28;20356;-66
2022/06/02 06:37:49;;;;;;;;;;;;;;;28.30;28.08;99681.59;5030415;28;19917;-67
2022/06/02 06:40:23;;;;;;;;;;;;;;;28.36;27.82;99677.56;5030442;28;19929;-67
2022/06/02 06:42:54;;;;;;;;;;;;;;;28.36;27.75;99677.56;5030463;28;20040;-67
2022/06/02 06:45:29;;;;;;;;;;;;;;;28.37;27.64;99673.69;5034173;28;19917;-66
2022/06/02 06:48:06;;;;;;;;;;;;;;;28.39;27.87;99670.59;5034541;28;20016;-67
2022/06/02 06:50:46;;;;;;;;;;;;;;;28.44;27.69;99670.41;5034181;28;19917;-66
2022/06/02 06:53:30;;;;;;;;;;;;;;;28.44;27.79;99667.69;5034008;28;19921;-66
2022/06/02 06:56:04;;;;;;;;;;;;;;;28.47;27.82;99672.53;5034002;28;20391;-66
2022/06/02 06:58:45;;;;;;;;;;;;;;;28.54;27.78;99664.59;5076991;28;19916;-68
2022/06/02 07:01:28;;;;;;;;;;;;;;;28.54;27.51;99667.34;5076857;28;19920;-66
2022/06/02 07:04:26;;;;;;;;;;;;;;;28.54;27.62;99667.34;5076595;28;19920;-66
2022/06/02 07:06:54;;;;;;;;;;;;;;;28.58;27.81;99659.28;5033830;28;19917;-66
2022/06/02 07:09:37;;;;;;;;;;;;;;;28.63;27.81;99654.44;5033888;28;19983;-67
2022/06/02 07:15:10;;;;;;;;;;;;;;;28.64;27.78;99661.53;5053410;28;19971;-65
2022/06/02 07:17:47;;;;;;;;;;;;;;;28.69;27.66;99659.75;5053636;28;19917;-65
2022/06/02 07:20:15;;;;;;;;;;;;;;;28.70;27.58;99655.84;5053550;28;19917;-66
2022/06/02 07:22:47;;;;;;;;;;;;;;;28.72;27.67;99659.09;5053629;28;20361;-65
2022/06/02 07:25:18;;;;;;;;;;;;;;;28.73;27.91;99663.47;5053523;28;19921;-65
2022/06/02 07:27:52;;;;;;;;;;;;;;;28.78;27.96;99660.53;5054061;28;19973;-66
2022/06/02 07:30:22;;;;;;;;;;;;;;;28.86;27.61;99662.47;5053050;28;20003;-66
2022/06/02 07:33:06;;;;;;;;;;;;;;;28.81;27.60;99665.38;5053180;28;19921;-65
2022/06/02 07:35:31;;;;;;;;;;;;;;;28.83;27.60;99652.91;5053341;28;19917;-65
2022/06/02 07:37:58;;;;;;;;;;;;;;;28.94;27.78;99664.38;5053401;28;20011;-65
2022/06/02 07:40:29;;;;;;;;;;;;;;;28.96;27.68;99664.84;5053262;28;19917;-65
2022/06/02 07:42:54;;;;;;;;;;;;;;;28.82;27.79;99661.47;5083355;28;20007;-66
2022/06/02 07:45:25;;;;;;;;;;;;;;;28.88;27.84;99665.69;5096322;28;19951;-65
2022/06/02 07:48:09;;;;;;;;;;;;;;;28.93;27.75;99668.25;5095498;28;20429;-65
2022/06/02 07:50:35;;;;;;;;;;;;;;;29.02;27.59;99669.03;5095488;28;19916;-65
2022/06/02 07:53:00;;;;;;;;;;;;;;;29.00;27.89;99671.31;5095334;28;20301;-66
2022/06/02 07:55:29;;;;;;;;;;;;;;;28.98;27.77;99670.84;5094798;28;19923;-65
2022/06/02 07:57:57;;;;;;;;;;;;;;;29.06;27.61;99668.38;5095791;28;19920;-65
2022/06/02 08:00:23;;;;;;;;;;;;;;;29.07;27.59;99672.75;5095129;28;20338;-65
2022/06/02 08:03:08;;;;;;;;;;;;;;;29.08;27.61;99671.59;5095507;28;19923;-65
2022/06/02 08:05:42;;;;;;;;;;;;;;;29.05;27.85;99680.53;5096106;28;19996;-66
2022/06/02 08:08:15;;;;;;;;;;;;;;;29.09;27.77;99671.28;5078523;28;19920;-66
2022/06/02 08:10:47;;;;;;;;;;;;;;;29.13;27.44;99676.91;5096060;28;20391;-66
2022/06/02 08:13:21;;;;;;;;;;;;;;;29.13;27.47;99676.91;5077798;28;19927;-66
2022/06/02 08:15:52;;;;;;;;;;;;;;;29.10;27.55;99674.84;5095998;28;19916;-65
2022/06/02 08:18:25;;;;;;;;;;;;;;;29.13;27.81;99668.66;5095550;28;19917;-64
2022/06/02 08:20:53;;;;;;;;;;;;;;;29.21;27.61;99674.16;5094695;28;19923;-64
2022/06/02 08:23:24;;;;;;;;;;;;;;;29.22;27.25;99675.00;5094967;28;19923;-65
2022/06/02 08:26:01;;;;;;;;;;;;;;;29.22;27.56;99677.75;5077650;28;19921;-64
2022/06/02 08:28:44;;;;;;;;;;;;;;;29.26;27.36;99675.13;5057472;28;19920;-65
2022/06/02 08:31:28;;;;;;;;;;;;;;;29.24;27.37;99680.97;5076838;28;20025;-67
2022/06/02 08:34:14;;;;;;;;;;;;;;;29.20;27.22;99680.00;5075246;28;19983;-67
2022/06/02 08:36:43;;;;;;;;;;;;;;;29.22;27.15;99672.25;5073660;28;19959;-66
2022/06/02 08:39:09;;;;;;;;;;;;;;;29.22;27.36;99675.00;5056620;28;20354;-64
2022/06/02 08:41:58;;;;;;;;;;;;;;;29.23;27.03;99681.28;5074493;28;19920;-65
2022/06/02 08:44:28;;;;;;;;;;;;;;;29.18;26.92;99671.25;5011975;28;19917;-65
2022/06/02 08:47:12;;;;;;;;;;;;;;;29.12;27.08;99669.81;5012028;28;19925;-65
2022/06/02 08:49:43;;;;;;;;;;;;;;;29.09;27.38;99678.72;5011831;28;20033;-65
2022/06/02 08:52:24;;;;;;;;;;;;;;;29.01;27.51;99681.19;5011804;28;19917;-64
2022/06/02 08:55:05;;;;;;;;;;;;;;;28.94;27.28;99689.13;5012054;28;20479;-64
2022/06/02 08:57:33;;;;;;;;;;;;;;;28.89;27.47;99680.22;4995798;28;19960;-64
2022/06/02 09:00:07;;;;;;;;;;;;;;;28.83;27.38;99685.09;4995770;28;19921;-64
2022/06/02 09:02:44;;;;;;;;;;;;;;;28.79;27.42;99700.66;5012393;28;19918;-64
2022/06/02 09:05:39;;;;;;;;;;;;;;;28.58;28.14;99695.00;5012359;28;19918;-65
2022/06/02 09:08:14;;;;;;;;;;;;;;;28.68;27.54;99702.13;4934822;29;20270;-65
2022/06/02 09:10:51;;;;;;;;;;;;;;;28.64;27.68;99707.47;4934000;29;19919;-66
2022/06/02 09:13:19;;;;;;;;;;;;;;;28.59;27.82;99702.13;4936705;29;19919;-65
2022/06/02 09:15:59;;;;;;;;;;;;;;;28.54;27.90;99705.81;4953678;29;19918;-66
2022/06/02 09:18:43;;;;;;;;;;;;;;;28.46;28.17;99704.72;4953519;29;19981;-65
2022/06/02 09:21:18;;;;;;;;;;;;;;;28.48;28.19;99699.69;4976769;28;19972;-66
2022/06/02 09:23:46;;;;;;;;;;;;;;;28.45;28.05;99703.06;4995300;28;19937;-65
2022/06/02 09:26:27;;;;;;;;;;;;;;;28.43;28.18;99710.84;5029078;28;20047;-66
2022/06/02 09:29:15;;;;;;;;;;;;;;;28.36;28.29;99709.72;5015581;28;19917;-67
2022/06/02 09:31:49;;;;;;;;;;;;;;;28.33;28.44;99702.13;5015421;28;19921;-66
2022/06/02 09:34:31;;;;;;;;;;;;;;;28.25;28.51;99701.81;5031408;28;19928;-67
2022/06/02 09:36:59;;;;;;;;;;;;;;;28.21;28.25;99706.31;5014642;28;19917;-66
2022/06/02 09:39:24;;;;;;;;;;;;;;;28.24;28.46;99705.69;5030912;28;20431;-66
2022/06/02 09:41:49;;;;;;;;;;;;;;;28.22;28.43;99709.88;5031307;28;20106;-67
2022/06/02 09:44:27;;;;;;;;;;;;;;;28.29;28.34;99711.00;5056061;28;19916;-66
2022/06/02 09:47:11;;;;;;;;;;;;;;;28.28;28.28;99711.31;5093956;28;19917;-66
2022/06/02 09:49:55;;;;;;;;;;;;;;;28.28;28.33;99714.88;5093474;28;19932;-66
2022/06/02 09:52:32;;;;;;;;;;;;;;;28.25;28.23;99720.22;5094005;28;19916;-66
2022/06/02 09:55:02;;;;;;;;;;;;;;;28.26;28.31;99717.13;5093445;28;19920;-66
2022/06/02 09:58:02;;;;;;;;;;;;;;;28.31;28.18;99721.69;5075341;28;19948;-65
2022/06/02 10:00:35;;;;;;;;;;;;;;;28.27;27.87;99729.75;5093378;28;19958;-65
2022/06/02 10:03:00;;;;;;;;;;;;;;;28.13;28.05;99715.38;5075489;28;20011;-66
2022/06/02 10:05:30;;;;;;;;;;;;;;;28.18;28.19;99709.72;5093201;28;19943;-66
2022/06/02 10:07:58;;;;;;;;;;;;;;;28.21;27.97;99713.75;5075328;28;20006;-66
2022/06/02 10:10:26;;;;;;;;;;;;;;;28.22;28.18;99723.63;5093138;28;20059;-67
2022/06/02 10:13:02;;;;;;;;;;;;;;;28.23;28.24;99723.28;5092961;28;19916;-66
2022/06/02 10:15:38;;;;;;;;;;;;;;;28.23;28.34;99725.22;5075522;28;19955;-66
2022/06/02 10:18:12;;;;;;;;;;;;;;;28.22;28.13;99729.13;5075637;28;19916;-65
2022/06/02 10:20:40;;;;;;;;;;;;;;;28.19;28.16;99721.50;5097546;28;19919;-67
2022/06/02 10:23:18;;;;;;;;;;;;;;;28.16;27.91;99728.44;5097475;28;19916;-67
2022/06/02 10:25:47;;;;;;;;;;;;;;;28.17;28.00;99724.59;5079243;28;19921;-67
2022/06/02 10:28:19;;;;;;;;;;;;;;;28.09;27.94;99725.38;5097222;28;19920;-66
2022/06/02 10:30:44;;;;;;;;;;;;;;;28.10;28.18;99725.06;5097394;28;19985;-66
2022/06/02 10:33:28;;;;;;;;;;;;;;;28.04;28.12;99728.28;5097018;28;20366;-67
2022/06/02 10:36:03;;;;;;;;;;;;;;;28.02;28.13;99733.28;5097886;28;19923;-67
2022/06/02 10:38:37;;;;;;;;;;;;;;;27.99;28.08;99728.44;5097312;28;19916;-67
2022/06/02 10:41:03;;;;;;;;;;;;;;;27.97;28.07;99730.69;5079085;28;19941;-67
2022/06/02 10:43:43;;;;;;;;;;;;;;;27.94;27.99;99731.31;5097233;28;20359;-69
2022/06/02 10:46:27;;;;;;;;;;;;;;;27.90;28.01;99734.66;5078555;28;19920;-66
2022/06/02 10:48:53;;;;;;;;;;;;;;;27.86;28.05;99741.94;5097455;28;19916;-66
2022/06/02 10:51:18;;;;;;;;;;;;;;;27.85;28.21;99740.31;5096590;28;20334;-66
2022/06/02 10:53:43;;;;;;;;;;;;;;;27.82;28.07;99740.97;5096922;28;20281;-66
2022/06/02 10:56:27;;;;;;;;;;;;;;;27.80;28.13;99748.69;5097251;28;20359;-67
2022/06/02 10:58:55;;;;;;;;;;;;;;;27.77;28.10;99743.88;5096736;28;19916;-66
2022/06/02 11:01:26;;;;;;;;;;;;;;;27.71;28.10;99737.69;5096375;28;20414;-67
2022/06/02 11:03:51;;;;;;;;;;;;;;;27.69;28.50;99730.91;5078014;28;20011;-67
2022/06/02 11:06:27;;;;;;;;;;;;;;;27.68;28.17;99729.28;5096668;28;20004;-67
2022/06/02 11:08:55;;;;;;;;;;;;;;;27.67;28.34;99744.16;5078366;28;19927;-67
2022/06/02 11:11:28;;;;;;;;;;;;;;;27.67;28.54;99733.97;5097006;28;19923;-68
2022/06/02 11:13:53;;;;;;;;;;;;;;;27.69;28.20;99730.91;5078254;28;19923;-67
2022/06/02 11:16:29;;;;;;;;;;;;;;;27.68;28.32;99729.28;5096579;28;19923;-67
2022/06/02 11:19:00;;;;;;;;;;;;;;;27.65;28.40;99724.47;5096610;28;19927;-67
2022/06/02 11:21:40;;;;;;;;;;;;;;;27.67;28.46;99722.19;5096950;28;20358;-67
2022/06/02 11:24:21;;;;;;;;;;;;;;;27.69;28.34;99733.66;5098933;28;19916;-66
2022/06/02 11:26:46;;;;;;;;;;;;;;;27.75;28.08;99724.13;5079081;28;19939;-67
2022/06/02 11:29:23;;;;;;;;;;;;;;;27.86;28.05;99722.72;5096422;28;19920;-66
2022/06/02 11:31:54;;;;;;;;;;;;;;;27.82;28.20;99724.50;5095958;28;19921;-66
2022/06/02 11:34:22;;;;;;;;;;;;;;;27.74;28.42;99714.31;5096373;28;19996;-66
2022/06/02 11:37:05;;;;;;;;;;;;;;;27.68;28.38;99721.06;5096340;28;19916;-67
2022/06/02 11:39:31;;;;;;;;;;;;;;;27.65;28.47;99716.22;5096256;28;19939;-67
2022/06/02 11:42:08;;;;;;;;;;;;;;;27.63;28.31;99721.19;5095898;28;20385;-66
2022/06/02 11:44:54;;;;;;;;;;;;;;;27.60;28.10;99710.88;5095964;28;19920;-67
2022/06/02 11:47:28;;;;;;;;;;;;;;;27.56;28.42;99715.38;5095047;28;19923;-66
2022/06/02 11:50:01;;;;;;;;;;;;;;;27.51;28.36;99717.13;5095796;28;19923;-66
2022/06/02 11:52:43;;;;;;;;;;;;;;;27.48;28.47;99709.53;5095507;28;19932;-67
2022/06/02 11:55:20;;;;;;;;;;;;;;;27.43;28.56;99714.38;5095584;28;19920;-67
2022/06/02 11:58:04;;;;;;;;;;;;;;;27.43;28.54;99704.19;5096191;28;19916;-68
2022/06/02 12:00:48;;;;;;;;;;;;;;;27.42;28.34;99710.78;5095396;28;19922;-68
2022/06/02 12:03:22;;;;;;;;;;;;;;;27.37;28.58;99713.69;5095485;28;19920;-67
2022/06/02 12:06:06;;;;;;;;;;;;;;;27.35;28.64;99705.78;5095527;28;20293;-67
2022/06/02 12:08:43;;;;;;;;;;;;;;;27.33;28.43;99701.72;5095438;28;19923;-68
2022/06/02 12:11:21;;;;;;;;;;;;;;;27.30;28.52;99702.34;5094966;28;19935;-67
2022/06/02 12:13:55;;;;;;;;;;;;;;;27.29;28.41;99700.75;5094848;28;19915;-68
2022/06/02 12:16:23;;;;;;;;;;;;;;;27.31;28.42;99699.31;5077747;28;19932;-68
2022/06/02 12:18:48;;;;;;;;;;;;;;;27.33;28.45;99712.72;5094936;28;19916;-68
2022/06/02 12:21:14;;;;;;;;;;;;;;;27.33;28.33;99707.22;5095457;28;19924;-68
2022/06/02 12:23:59;;;;;;;;;;;;;;;27.34;28.56;99701.41;5095313;28;19916;-67
2022/06/02 12:26:44;;;;;;;;;;;;;;;27.32;28.59;99694.63;5032698;28;19972;-68
2022/06/02 12:29:20;;;;;;;;;;;;;;;27.32;28.40;99708.34;5016250;28;19917;-67
2022/06/02 12:32:20;;;;;;;;;;;;;;;27.32;28.24;99706.41;5016242;28;19926;-67
2022/06/02 12:34:45;;;;;;;;;;;;;;;27.32;28.37;99708.34;4974169;28;19925;-68
2022/06/02 12:37:10;;;;;;;;;;;;;;;27.27;28.44;99711.19;4973944;28;19922;-67
2022/06/02 12:39:54;;;;;;;;;;;;;;;27.25;28.32;99708.78;4973633;28;20381;-67
2022/06/02 12:42:38;;;;;;;;;;;;;;;27.24;28.44;99715.38;4973049;28;19940;-67
2022/06/02 12:45:12;;;;;;;;;;;;;;;27.24;28.58;99714.59;4973936;28;20002;-67
2022/06/02 12:47:56;;;;;;;;;;;;;;;27.24;28.45;99714.59;4973682;28;19925;-69
2022/06/02 12:50:30;;;;;;;;;;;;;;;27.23;28.45;99719.25;4973509;28;19924;-67
2022/06/02 12:53:13;;;;;;;;;;;;;;;27.21;28.35;99724.25;4973304;28;19969;-68
2022/06/02 12:55:43;;;;;;;;;;;;;;;27.22;28.43;99727.81;4973553;28;20003;-67
2022/06/02 12:58:14;;;;;;;;;;;;;;;27.20;28.36;99727.28;4957768;28;19953;-67
2022/06/02 13:00:39;;;;;;;;;;;;;;;27.14;28.42;99738.41;4974062;28;20288;-68
2022/06/02 13:03:13;;;;;;;;;;;;;;;27.15;28.54;99745.50;4992571;28;20009;-68
2022/06/02 13:05:57;;;;;;;;;;;;;;;27.17;28.44;99740.50;5032228;28;19917;-68
2022/06/02 13:08:41;;;;;;;;;;;;;;;27.13;28.46;99739.53;5054341;28;19985;-67
2022/06/02 13:11:13;;;;;;;;;;;;;;;27.13;28.50;99741.44;5094995;28;19916;-67
2022/06/02 13:13:44;;;;;;;;;;;;;;;27.10;28.38;99751.13;5076275;28;19916;-67
2022/06/02 13:16:22;;;;;;;;;;;;;;;27.13;28.38;99753.25;5094432;28;19952;-68
2022/06/02 13:19:08;;;;;;;;;;;;;;;27.12;28.30;99751.63;5094208;28;19916;-68
2022/06/02 13:21:43;;;;;;;;;;;;;;;27.08;28.48;99747.06;5094644;28;19926;-68
2022/06/02 13:24:11;;;;;;;;;;;;;;;27.09;28.43;99760.47;5095211;28;19958;-68
2022/06/02 13:26:45;;;;;;;;;;;;;;;27.00;28.56;99753.31;5094365;28;19916;-67